Time;durP1;ratioP1;P1;durP2;ratioP2;P2;SDS_P1;SDS_P2;PMS_P1;PMS_P2;Temp;Humidity;BMP_temperature;BMP_pressure;BME280_temperature;BME280_humidity;BME280_pressure;Samples;Min_cycle;Max_cycle;Signal;HPM_P1;HPM_P2
2024/03/21 00:00:50;;;;;;;;;79.33;59.67;;;;;2.99;97.68;99959.41;6303511;20;3645075;-42
2024/03/21 00:03:18;;;;;;;;;79.00;57.33;;;;;3.30;97.75;99959.47;6303015;20;3630460;-40
2024/03/21 00:05:47;;;;;;;;;81.33;59.67;;;;;3.64;94.95;99953.22;6300647;20;3642996;-41
2024/03/21 00:08:15;;;;;;;;;83.67;64.33;;;;;3.65;95.10;99954.94;6304075;20;3629509;-41
2024/03/21 00:10:43;;;;;;;;;83.00;62.33;;;;;3.85;92.70;99959.69;6304634;20;3654452;-40
2024/03/21 00:13:13;;;;;;;;;81.33;61.00;;;;;3.98;91.97;99957.53;6276577;20;3636753;-42
2024/03/21 00:15:42;;;;;;;;;76.67;60.67;;;;;4.02;90.69;99950.34;6299265;20;2884727;-40
2024/03/21 00:18:16;;;;;;;;;67.50;56.00;;;;;4.01;90.68;99951.25;6298510;20;2500253;-49
2024/03/21 00:20:45;;;;;;;;;72.67;52.67;;;;;4.03;90.14;99930.81;6272376;20;2890012;-40
2024/03/21 00:23:13;;;;;;;;;78.33;59.33;;;;;4.06;89.79;99936.06;6302744;20;3645078;-40
2024/03/21 00:25:42;;;;;;;;;84.67;62.67;;;;;4.09;89.64;99939.47;6300353;20;3660690;-44
2024/03/21 00:28:11;;;;;;;;;74.00;56.33;;;;;3.83;89.42;99936.75;6266249;20;3644505;-41
2024/03/21 00:30:40;;;;;;;;;85.67;63.33;;;;;2.75;95.97;99926.47;6301765;20;3640872;-40
2024/03/21 00:33:09;;;;;;;;;87.67;65.67;;;;;2.86;96.45;99924.41;6304269;20;3653427;-41
2024/03/21 00:35:37;;;;;;;;;87.67;64.33;;;;;2.56;96.37;99918.13;6301641;20;3668080;-39
2024/03/21 00:38:06;;;;;;;;;83.67;61.33;;;;;3.09;96.57;99917.63;6303366;20;3648206;-41
2024/03/21 00:40:35;;;;;;;;;80.33;59.67;;;;;3.35;96.26;99908.94;6303175;20;3655570;-39
2024/03/21 00:43:04;;;;;;;;;81.67;61.67;;;;;3.66;94.16;99903.59;6301842;20;3650366;-41
2024/03/21 00:45:33;;;;;;;;;79.33;61.33;;;;;3.97;92.05;99892.88;6300327;20;3634685;-40
2024/03/21 00:48:02;;;;;;;;;79.67;60.00;;;;;3.59;93.94;99902.03;6302734;20;3639862;-39
2024/03/21 00:50:31;;;;;;;;;77.67;57.67;;;;;4.05;91.48;99903.28;6302612;20;3645046;-40
2024/03/21 00:53:00;;;;;;;;;83.00;62.00;;;;;4.26;89.94;99898.19;6303677;20;3663809;-40
2024/03/21 00:55:28;;;;;;;;;80.67;60.00;;;;;4.19;90.07;99897.56;6274259;20;3656583;-41
2024/03/21 00:57:56;;;;;;;;;79.67;61.67;;;;;4.11;88.83;99892.47;6308161;20;3622132;-40
2024/03/21 01:00:25;;;;;;;;;83.33;61.00;;;;;3.81;90.87;99893.41;6306374;20;3658604;-40
2024/03/21 01:02:53;;;;;;;;;80.67;59.00;;;;;3.83;89.70;99888.94;6305751;20;3639905;-41
2024/03/21 01:05:21;;;;;;;;;74.00;57.33;;;;;3.40;89.95;99890.22;6306983;20;3624309;-40
2024/03/21 01:07:50;;;;;;;;;80.67;61.67;;;;;3.17;92.18;99893.53;6307210;20;2894162;-42
2024/03/21 01:10:18;;;;;;;;;88.33;61.67;;;;;3.07;93.25;99890.25;6308740;20;3662834;-41
2024/03/21 01:12:47;;;;;;;;;84.00;62.67;;;;;3.09;95.81;99891.09;6272693;20;3638814;-42
2024/03/21 01:15:17;;;;;;;;;81.67;63.33;;;;;3.28;94.63;99881.69;6305406;20;2885848;-41
2024/03/21 01:17:46;;;;;;;;;80.00;59.67;;;;;3.65;92.44;99880.59;6305125;20;3656074;-39
2024/03/21 01:20:15;;;;;;;;;82.67;61.33;;;;;3.44;93.68;99887.41;6308082;20;3657592;-40
2024/03/21 01:22:43;;;;;;;;;81.00;59.67;;;;;3.11;95.52;99878.66;6273517;20;3649315;-42
2024/03/21 01:25:12;;;;;;;;;88.00;63.67;;;;;3.22;96.22;99875.69;6304029;20;3661739;-42
2024/03/21 01:27:39;;;;;;;;;81.00;63.00;;;;;2.73;99.02;99867.31;6273402;20;2878401;-39
2024/03/21 01:30:08;;;;;;;;;72.33;47.67;;;;;2.70;98.91;99862.09;6274332;20;2898437;-42
2024/03/21 01:32:36;;;;;;;;;83.67;61.00;;;;;2.76;99.75;99866.34;6305350;20;3651312;-42
2024/03/21 01:35:08;;;;;;;;;79.00;58.00;;;;;2.60;100.00;99865.88;6306070;20;3640892;-42
2024/03/21 01:37:37;;;;;;;;;80.67;61.67;;;;;2.34;100.00;99863.91;6306479;20;3644038;-42
2024/03/21 01:40:06;;;;;;;;;76.67;58.00;;;;;1.57;100.00;99849.84;6307559;20;3639927;-39
2024/03/21 01:42:37;;;;;;;;;79.00;59.67;;;;;0.99;100.00;99849.28;6306954;20;2878409;-40
2024/03/21 01:45:06;;;;;;;;;70.00;53.00;;;;;-0.01;100.00;99853.72;6304620;20;2882593;-42
2024/03/21 01:47:34;;;;;;;;;75.67;54.00;;;;;-0.02;100.00;99853.75;6274563;20;2896124;-42
2024/03/21 01:50:04;;;;;;;;;77.33;55.33;;;;;0.51;100.00;99849.34;6302901;20;2904517;-43
2024/03/21 01:52:35;;;;;;;;;74.50;55.00;;;;;0.18;100.00;99856.94;6305951;20;2879455;-39
2024/03/21 01:55:04;;;;;;;;;72.00;56.50;;;;;0.36;100.00;99855.75;6272976;20;2877578;-40
2024/03/21 01:57:33;;;;;;;;;75.50;55.50;;;;;0.38;100.00;99846.03;6276361;20;2878426;-39
2024/03/21 02:00:03;;;;;;;;;74.00;55.00;;;;;0.60;100.00;99849.16;6273894;20;2882681;-41
2024/03/21 02:02:32;;;;;;;;;76.67;56.67;;;;;0.73;100.00;99856.84;6272923;20;3636738;-40
2024/03/21 02:05:00;;;;;;;;;81.00;59.33;;;;;0.87;100.00;99857.50;6302418;20;2895103;-40
2024/03/21 02:07:31;;;;;;;;;75.00;58.33;;;;;0.92;100.00;99852.09;6305358;20;2872236;-40
2024/03/21 02:09:58;;;;;;;;;79.50;61.00;;;;;1.15;100.00;99860.44;6306207;20;2881512;-40
2024/03/21 02:12:48;;;;;;;;;78.00;61.00;;;;;1.67;100.00;99861.09;6272517;20;2885690;-40
2024/03/21 02:15:17;;;;;;;;;91.00;66.00;;;;;2.11;100.00;99862.72;6304668;20;3646105;-39
2024/03/21 02:17:46;;;;;;;;;86.67;63.67;;;;;2.20;100.00;99861.59;6305573;20;3657707;-41
2024/03/21 02:20:14;;;;;;;;;81.67;62.33;;;;;2.40;100.00;99867.28;6304747;20;3639869;-41
2024/03/21 02:22:43;;;;;;;;;84.67;62.67;;;;;2.58;100.00;99863.28;6306897;20;3659647;-39
2024/03/21 02:25:12;;;;;;;;;91.50;67.50;;;;;2.65;100.00;99861.34;6303698;20;3527421;-39
2024/03/21 02:27:42;;;;;;;;;86.33;67.33;;;;;2.68;100.00;99861.25;6304738;20;3631531;-40
2024/03/21 02:30:11;;;;;;;;;85.67;65.33;;;;;2.15;100.00;99855.56;6306882;20;3638921;-41
2024/03/21 02:32:40;;;;;;;;;91.67;67.67;;;;;2.16;100.00;99855.53;6306570;20;3641940;-40
2024/03/21 02:35:08;;;;;;;;;77.00;63.00;;;;;1.84;100.00;99853.63;6304643;20;2870099;-43
2024/03/21 02:37:37;;;;;;;;;77.33;61.33;;;;;1.50;100.00;99851.75;6273214;20;2877616;-40
2024/03/21 02:40:07;;;;;;;;;82.00;61.00;;;;;1.25;100.00;99853.19;6305996;20;3638797;-39
2024/03/21 02:42:37;;;;;;;;;80.33;60.67;;;;;1.02;100.00;99857.16;6306859;20;3631533;-39
2024/03/21 02:45:06;;;;;;;;;77.67;58.00;;;;;0.56;100.00;99855.41;6304021;20;3640917;-39
2024/03/21 02:47:35;;;;;;;;;77.00;62.00;;;;;0.56;100.00;99858.06;6305962;20;2887800;-40
2024/03/21 02:50:04;;;;;;;;;82.00;57.67;;;;;-0.02;100.00;99859.03;6273949;20;2900523;-40
2024/03/21 02:52:32;;;;;;;;;73.00;57.00;;;;;-0.29;100.00;99855.03;6305291;20;2872227;-40
2024/03/21 02:55:00;;;;;;;;;78.00;60.67;;;;;-0.10;100.00;99853.88;6271371;20;3639825;-43
2024/03/21 02:57:29;;;;;;;;;77.00;60.33;;;;;0.11;100.00;99850.03;6303808;20;2873199;-39
2024/03/21 02:59:57;;;;;;;;;80.67;61.67;;;;;0.27;100.00;99860.34;6304948;20;3647626;-40
2024/03/21 03:02:25;;;;;;;;;75.50;57.50;;;;;0.11;100.00;99854.44;6305718;20;2874315;-39
2024/03/21 03:04:53;;;;;;;;;71.00;56.50;;;;;-0.07;100.00;99850.31;6273217;20;2872177;-39
2024/03/21 03:07:21;;;;;;;;;86.33;60.00;;;;;-0.04;100.00;99853.78;6271884;20;3659628;-39
2024/03/21 03:09:50;;;;;;;;;90.33;64.67;;;;;0.13;100.00;99856.16;6304753;20;3662790;-40
2024/03/21 03:12:18;;;;;;;;;84.67;61.67;;;;;-0.13;100.00;99847.75;6303102;20;2907779;-39
2024/03/21 03:14:46;;;;;;;;;80.67;57.33;;;;;0.12;100.00;99845.63;6301207;20;2888970;-39
2024/03/21 03:17:15;;;;;;;;;86.67;61.00;;;;;-0.07;100.00;99834.50;6303501;20;3669020;-40
2024/03/21 03:19:42;;;;;;;;;75.50;61.00;;;;;-0.22;100.00;99841.72;6303579;20;2882571;-39
2024/03/21 03:22:10;;;;;;;;;79.00;61.00;;;;;-0.10;100.00;99835.41;6271570;20;2886291;-39
2024/03/21 03:24:38;;;;;;;;;81.00;62.33;;;;;0.15;100.00;99846.41;6270453;20;2888858;-39
2024/03/21 03:27:07;;;;;;;;;81.67;60.00;;;;;0.30;100.00;99839.16;6303370;20;2895381;-40
2024/03/21 03:29:36;;;;;;;;;76.67;57.67;;;;;0.30;100.00;99849.72;6304896;20;2885875;-39
2024/03/21 03:32:03;;;;;;;;;78.00;58.00;;;;;0.82;100.00;99848.78;6300998;20;2500404;-39
2024/03/21 03:37:35;;;;;;;;;81.67;64.00;;;;;0.68;100.00;99842.88;6301851;20;3622173;-39
2024/03/21 03:40:05;;;;;;;;;85.33;62.67;;;;;0.26;100.00;99840.97;6303589;20;3654608;-39
2024/03/21 03:42:34;;;;;;;;;89.67;69.33;;;;;0.51;100.00;99841.41;6303016;20;2894132;-41
2024/03/21 03:45:02;;;;;;;;;87.33;64.00;;;;;0.75;100.00;99834.78;6301990;20;3653365;-39
2024/03/21 03:47:31;;;;;;;;;92.33;71.00;;;;;0.77;100.00;99834.78;6304634;20;3659639;-41
2024/03/21 03:49:59;;;;;;;;;90.67;65.00;;;;;1.10;100.00;99835.84;6304639;20;3660662;-40
2024/03/21 03:52:28;;;;;;;;;82.00;64.33;;;;;0.90;100.00;99836.28;6304201;20;2879574;-41
2024/03/21 03:54:56;;;;;;;;;86.00;64.67;;;;;0.75;100.00;99833.94;6300630;20;3646217;-43
2024/03/21 03:57:25;;;;;;;;;84.33;64.33;;;;;1.01;100.00;99841.34;6303792;20;3653386;-43
2024/03/21 03:59:53;;;;;;;;;86.33;64.67;;;;;0.72;100.00;99841.91;6303436;20;3653364;-40
2024/03/21 04:02:22;;;;;;;;;84.33;65.33;;;;;0.73;100.00;99839.22;6298951;20;2886812;-39
2024/03/21 04:04:50;;;;;;;;;91.33;69.33;;;;;0.69;100.00;99839.34;6301130;20;3652441;-43
2024/03/21 04:07:21;;;;;;;;;90.67;68.33;;;;;0.73;100.00;99841.88;6303382;20;3652348;-41
2024/03/21 04:09:49;;;;;;;;;87.67;65.33;;;;;0.87;100.00;99836.34;6301949;20;3652361;-39
2024/03/21 04:12:18;;;;;;;;;87.33;64.00;;;;;1.09;100.00;99842.06;6300708;20;3657539;-39
2024/03/21 04:14:49;;;;;;;;;94.00;63.67;;;;;0.98;100.00;99849.34;6300467;20;3656602;-39
2024/03/21 04:17:17;;;;;;;;;88.00;65.67;;;;;0.45;100.00;99849.47;6303276;20;3657682;-40
2024/03/21 04:19:46;;;;;;;;;84.67;66.00;;;;;0.73;100.00;99848.94;6302811;20;2889984;-41
2024/03/21 04:22:15;;;;;;;;;93.00;71.00;;;;;0.60;100.00;99853.56;6303738;20;3650313;-39
2024/03/21 04:24:43;;;;;;;;;85.50;61.50;;;;;0.74;100.00;99848.91;6303403;20;3539968;-41
2024/03/21 04:27:12;;;;;;;;;92.33;66.00;;;;;0.70;100.00;99854.28;6302347;20;3655545;-39
2024/03/21 04:29:40;;;;;;;;;98.00;73.00;;;;;0.96;100.00;99853.78;6302926;20;3651317;-40
2024/03/21 04:32:16;;;;;;;;;96.33;72.00;;;;;1.11;100.00;99856.13;6303458;20;3641915;-39
2024/03/21 04:34:44;;;;;;;;;88.33;66.33;;;;;1.16;100.00;99859.53;6301535;20;3642045;-39
2024/03/21 04:37:18;;;;;;;;;87.00;61.00;;;;;1.05;100.00;99861.50;6301076;20;2846211;-39
2024/03/21 04:39:48;;;;;;;;;84.67;67.33;;;;;1.13;100.00;99869.28;6270931;20;2874325;-41
2024/03/21 04:42:17;;;;;;;;;88.67;65.67;;;;;1.06;100.00;99866.78;6303415;20;3662814;-39
2024/03/21 04:44:46;;;;;;;;;88.00;62.00;;;;;1.41;100.00;99869.59;6301872;20;2889866;-40
2024/03/21 04:47:14;;;;;;;;;97.67;67.33;;;;;1.19;100.00;99863.91;6303925;20;3665987;-39
2024/03/21 04:49:42;;;;;;;;;83.50;63.50;;;;;1.47;100.00;99869.47;6268398;20;2895114;-39
2024/03/21 04:52:11;;;;;;;;;85.67;64.67;;;;;1.36;100.00;99871.47;6273435;20;3642274;-39
2024/03/21 04:54:39;;;;;;;;;87.00;61.33;;;;;1.35;100.00;99869.75;6300669;20;3654409;-40
2024/03/21 04:57:08;;;;;;;;;88.33;64.33;;;;;1.53;100.00;99870.22;6300642;20;3650253;-39
2024/03/21 04:59:36;;;;;;;;;87.33;62.67;;;;;1.86;100.00;99882.72;6302494;20;3646222;-39
2024/03/21 05:02:04;;;;;;;;;82.33;64.00;;;;;1.76;100.00;99882.03;6300615;20;3642014;-40
2024/03/21 05:04:33;;;;;;;;;84.00;64.33;;;;;1.27;100.00;99888.41;6298250;20;3643010;-41
2024/03/21 05:07:01;;;;;;;;;78.00;60.67;;;;;0.90;100.00;99889.13;6301357;20;3633596;-40
2024/03/21 05:09:29;;;;;;;;;75.50;57.00;;;;;0.57;100.00;99886.19;6299455;20;2871148;-42
2024/03/21 05:11:57;;;;;;;;;83.00;59.67;;;;;0.44;100.00;99900.50;6271703;20;3657614;-40
2024/03/21 05:14:26;;;;;;;;;86.00;62.33;;;;;-0.28;100.00;99894.59;6301626;20;3650296;-40
2024/03/21 05:16:53;;;;;;;;;74.50;61.00;;;;;-0.53;100.00;99903.72;6300114;20;2867365;-40
2024/03/21 05:19:22;;;;;;;;;86.00;63.67;;;;;-0.72;100.00;99903.97;6270722;20;3657578;-40
2024/03/21 05:21:50;;;;;;;;;89.33;64.00;;;;;0.50;100.00;99913.66;6301864;20;3663830;-42
2024/03/21 05:24:19;;;;;;;;;87.00;65.00;;;;;0.12;100.00;99914.25;6301004;20;3644000;-42
2024/03/21 05:26:48;;;;;;;;;80.33;62.00;;;;;0.50;100.00;99918.03;6302856;20;2881721;-40
2024/03/21 05:29:16;;;;;;;;;96.00;69.33;;;;;0.58;100.00;99914.38;6301772;20;3671126;-40
2024/03/21 05:31:44;;;;;;;;;81.67;62.67;;;;;0.17;100.00;99913.28;6301628;20;2883659;-40
2024/03/21 05:34:13;;;;;;;;;87.00;64.00;;;;;1.00;100.00;99914.50;6298270;20;3662853;-39
2024/03/21 05:36:41;;;;;;;;;90.67;70.00;;;;;0.63;100.00;99923.09;6300790;20;3645033;-40
2024/03/21 05:39:10;;;;;;;;;95.33;65.67;;;;;-0.07;100.00;99916.31;6303604;20;3643020;-40
2024/03/21 05:41:38;;;;;;;;;80.00;63.00;;;;;0.75;100.00;99918.50;6305400;20;2877534;-41
2024/03/21 05:44:05;;;;;;;;;77.50;61.00;;;;;1.38;100.00;99918.16;6302594;20;2500399;-39
2024/03/21 05:46:34;;;;;;;;;80.33;60.67;;;;;0.94;100.00;99922.53;6275681;20;3639969;-40
2024/03/21 05:49:02;;;;;;;;;91.00;67.67;;;;;2.06;100.00;99922.84;6307552;20;3644121;-40
2024/03/21 05:51:30;;;;;;;;;85.33;65.33;;;;;2.74;96.52;99921.19;6306848;20;3650272;-40
2024/03/21 05:54:01;;;;;;;;;86.67;65.67;;;;;2.52;96.19;99912.91;6306832;20;3667977;-41
2024/03/21 05:56:29;;;;;;;;;86.33;65.00;;;;;3.23;96.46;99919.88;6305899;20;3640961;-42
2024/03/21 05:58:58;;;;;;;;;85.00;63.00;;;;;3.60;93.50;99914.38;6306909;20;3666934;-40
2024/03/21 06:01:32;;;;;;;;;79.00;64.50;;;;;3.73;92.93;99923.72;6272571;20;2871168;-40
2024/03/21 06:04:02;;;;;;;;;84.33;64.67;;;;;3.65;91.22;99925.75;6274017;20;3652358;-41
2024/03/21 06:06:30;;;;;;;;;88.67;66.67;;;;;3.58;92.31;99915.34;6308116;20;3645190;-40
2024/03/21 06:08:58;;;;;;;;;92.33;65.00;;;;;3.52;92.77;99919.06;6306323;20;3648203;-41
2024/03/21 06:11:27;;;;;;;;;92.33;71.00;;;;;3.53;94.80;99915.50;6306091;20;3663922;-42
2024/03/21 06:13:55;;;;;;;;;89.33;67.67;;;;;3.87;93.45;99911.81;6306566;20;3656507;-41
2024/03/21 06:16:24;;;;;;;;;94.00;74.00;;;;;4.51;89.40;99912.44;6306236;20;3670195;-40
2024/03/21 06:18:52;;;;;;;;;87.67;64.67;;;;;5.14;87.11;99917.41;6273470;20;3631529;-40
2024/03/21 06:21:20;;;;;;;;;68.33;50.33;;;;;5.47;81.42;99918.81;6306168;20;2883729;-43
2024/03/21 06:23:49;;;;;;;;;84.33;59.00;;;;;5.65;79.55;99919.06;6306889;20;3663869;-41
2024/03/21 06:26:17;;;;;;;;;84.00;65.33;;;;;5.40;80.93;99922.66;6273131;20;3647179;-41
2024/03/21 06:28:46;;;;;;;;;81.33;61.33;;;;;6.53;77.31;99927.16;6306844;20;3663837;-41
2024/03/21 06:31:14;;;;;;;;;81.00;63.00;;;;;6.45;74.81;99926.63;6306711;20;3631599;-40
2024/03/21 06:33:43;;;;;;;;;75.67;59.33;;;;;6.76;74.45;99929.75;6305268;20;3632566;-40
2024/03/21 06:36:11;;;;;;;;;71.00;56.00;;;;;7.69;70.14;99940.84;6306769;20;3625247;-40
2024/03/21 06:38:40;;;;;;;;;69.00;54.00;;;;;7.51;69.36;99939.00;6306011;20;3626292;-43
2024/03/21 06:41:08;;;;;;;;;59.00;47.00;;;;;8.37;65.50;99934.97;6307326;20;2861745;-42
2024/03/21 06:43:36;;;;;;;;;61.67;49.67;;;;;8.86;62.56;99927.22;6273666;20;2877451;-40
2024/03/21 06:46:04;;;;;;;;;65.33;50.00;;;;;8.30;63.36;99930.88;6306089;20;3630524;-41
2024/03/21 06:48:33;;;;;;;;;63.00;48.00;;;;;8.04;64.29;99932.13;6305157;20;3635685;-42
2024/03/21 06:51:07;;;;;;;;;63.00;47.33;;;;;7.98;67.01;99943.06;6307418;20;3636696;-42
2024/03/21 06:53:35;;;;;;;;;58.00;46.50;;;;;7.46;70.89;99941.00;6305665;20;2864853;-43
2024/03/21 06:56:04;;;;;;;;;59.33;46.00;;;;;8.49;69.69;99942.44;6272758;20;2870055;-42
2024/03/21 06:58:35;;;;;;;;;54.67;44.33;;;;;8.99;66.79;99936.38;6304517;20;2865907;-41
2024/03/21 07:01:03;;;;;;;;;58.00;46.00;;;;;8.80;68.43;99948.97;6300119;20;3622247;-41
2024/03/21 07:03:31;;;;;;;;;56.33;46.33;;;;;8.57;68.15;99953.63;6303009;20;2881738;-42
2024/03/21 07:06:00;;;;;;;;;56.33;43.67;;;;;9.25;67.06;99960.09;6303391;20;2862964;-42
2024/03/21 07:08:28;;;;;;;;;53.33;43.67;;;;;9.27;63.55;99953.72;6305079;20;3600343;-42
2024/03/21 07:10:56;;;;;;;;;54.33;42.67;;;;;9.11;64.44;99944.69;6306230;20;2872242;-41
2024/03/21 07:13:25;;;;;;;;;52.00;41.00;;;;;9.20;64.30;99949.59;6306039;20;3625704;-41
2024/03/21 07:15:53;;;;;;;;;51.33;39.33;;;;;8.95;63.18;99945.50;6305742;20;2876146;-41
2024/03/21 07:18:21;;;;;;;;;48.67;39.33;;;;;10.06;59.49;99956.63;6305869;20;3611706;-42
2024/03/21 07:20:57;;;;;;;;;49.33;41.00;;;;;10.09;57.96;99953.75;6305460;20;2865020;-40
2024/03/21 07:23:26;;;;;;;;;47.33;40.00;;;;;9.48;59.30;99956.19;6307374;20;2873361;-42
2024/03/21 07:25:53;;;;;;;;;46.00;39.50;;;;;10.64;57.02;99952.50;6302417;20;2846095;-41
2024/03/21 07:28:22;;;;;;;;;50.33;40.00;;;;;9.70;58.23;99958.63;6274168;20;2869061;-43
2024/03/21 07:30:57;;;;;;;;;47.00;39.00;;;;;10.48;57.38;99959.69;6305643;20;2859734;-43
2024/03/21 07:33:26;;;;;;;;;49.67;39.00;;;;;9.92;59.14;99956.47;6272979;20;2870276;-41
2024/03/21 07:35:58;;;;;;;;;47.00;38.33;;;;;9.17;60.85;99957.81;6304597;20;2859669;-41
2024/03/21 07:38:26;;;;;;;;;49.67;41.00;;;;;9.12;61.29;99951.81;6306580;20;2856600;-41
2024/03/21 07:41:01;;;;;;;;;47.00;39.50;;;;;9.47;59.36;99957.16;6305564;20;2853379;-42
2024/03/21 07:43:29;;;;;;;;;50.67;41.33;;;;;10.01;58.17;99955.13;6274774;20;2859781;-43
2024/03/21 07:45:57;;;;;;;;;48.50;40.50;;;;;10.31;57.69;99953.44;6307637;20;2845145;-42
2024/03/21 07:48:24;;;;;;;;;48.00;36.50;;;;;9.86;58.04;99954.16;6274519;20;2850274;-41
2024/03/21 07:50:53;;;;;;;;;46.33;38.00;;;;;10.59;56.69;99951.91;6274801;20;2858770;-41
2024/03/21 07:53:22;;;;;;;;;52.00;41.33;;;;;10.62;57.13;99945.47;6305683;20;3603472;-42
2024/03/21 07:55:51;;;;;;;;;50.33;39.33;;;;;10.44;57.28;99947.41;6304809;20;3617158;-41
2024/03/21 07:58:19;;;;;;;;;50.00;42.67;;;;;10.85;58.43;99953.06;6304331;20;3596210;-43
2024/03/21 08:00:48;;;;;;;;;43.33;33.33;;;;;10.58;58.17;99950.13;6307836;20;3585740;-42
2024/03/21 08:03:16;;;;;;;;;48.67;39.00;;;;;10.82;56.76;99952.38;6270500;20;3611759;-40
2024/03/21 08:05:43;;;;;;;;;49.67;41.00;;;;;11.58;53.82;99953.13;6305969;20;3598185;-42
2024/03/21 08:08:12;;;;;;;;;53.67;43.00;;;;;10.57;56.33;99956.47;6274202;20;2864931;-42
2024/03/21 08:10:41;;;;;;;;;55.67;46.00;;;;;10.45;56.70;99950.00;6307035;20;3623184;-42
2024/03/21 08:13:09;;;;;;;;;53.00;40.67;;;;;10.67;56.09;99949.63;6303645;20;3625287;-40
2024/03/21 08:15:38;;;;;;;;;53.33;42.67;;;;;10.75;56.44;99946.50;6302782;20;3625318;-40
2024/03/21 08:18:06;;;;;;;;;50.67;41.00;;;;;11.57;53.78;99946.03;6300214;20;2850480;-43
2024/03/21 08:20:34;;;;;;;;;55.67;44.00;;;;;10.67;56.54;99938.03;6305177;20;3610003;-40
2024/03/21 08:23:02;;;;;;;;;56.00;44.67;;;;;10.72;56.20;99952.06;6274729;20;3613822;-40
2024/03/21 08:25:35;;;;;;;;;56.67;45.00;;;;;10.32;55.59;99944.47;6301562;20;2870273;-40
2024/03/21 08:28:04;;;;;;;;;55.67;44.67;;;;;10.61;57.21;99947.31;6306210;20;3618998;-40
2024/03/21 08:30:32;;;;;;;;;57.00;43.67;;;;;11.63;53.60;99956.41;6304268;20;3625324;-40
2024/03/21 08:33:00;;;;;;;;;53.33;42.00;;;;;12.31;52.62;99952.22;6305783;20;3622118;-41
2024/03/21 08:35:29;;;;;;;;;48.33;38.67;;;;;11.79;53.43;99958.16;6304012;20;3595057;-41
2024/03/21 08:37:56;;;;;;;;;43.67;35.00;;;;;11.12;54.24;99961.31;6307796;20;3605517;-41
2024/03/21 08:40:24;;;;;;;;;52.00;41.00;;;;;11.75;51.47;99965.56;6274883;20;3604496;-41
2024/03/21 08:42:53;;;;;;;;;49.00;39.00;;;;;11.75;53.35;99957.50;6305575;20;3478379;-41
2024/03/21 08:45:23;;;;;;;;;54.67;42.67;;;;;12.80;50.67;99970.56;6303519;20;3630959;-42
2024/03/21 08:47:51;;;;;;;;;50.67;41.00;;;;;13.21;49.43;99961.50;6304240;20;3600336;-41
2024/03/21 08:50:19;;;;;;;;;48.33;39.00;;;;;12.47;51.45;99961.00;6306566;20;3606652;-42
2024/03/21 08:52:47;;;;;;;;;46.00;34.33;;;;;12.57;51.05;99958.59;6272538;20;2865054;-41
2024/03/21 08:55:15;;;;;;;;;52.67;40.00;;;;;12.70;50.38;99953.25;6306047;20;3610676;-42
2024/03/21 08:57:44;;;;;;;;;52.00;39.67;;;;;13.34;50.41;99958.88;6271996;20;3629458;-40
2024/03/21 09:00:14;;;;;;;;;45.00;36.67;;;;;13.53;49.51;99953.94;6305875;20;3598193;-41
2024/03/21 09:02:43;;;;;;;;;46.67;38.67;;;;;13.45;48.36;99961.69;6271118;20;3603443;-42
2024/03/21 09:05:10;;;;;;;;;49.00;37.67;;;;;13.37;48.18;99959.50;6306203;20;3625715;-41
2024/03/21 09:07:39;;;;;;;;;38.67;32.67;;;;;13.29;48.30;99959.16;6271833;20;2855482;-42
2024/03/21 09:10:07;;;;;;;;;42.33;35.67;;;;;13.17;47.63;99963.56;6309737;20;3592993;-42
2024/03/21 09:12:36;;;;;;;;;46.00;38.00;;;;;13.02;49.80;99963.72;6271137;20;2863971;-41
2024/03/21 09:15:05;;;;;;;;;51.33;39.67;;;;;12.71;50.92;99960.38;6304743;20;3623158;-42
2024/03/21 09:17:33;;;;;;;;;46.00;39.00;;;;;13.32;49.98;99958.09;6310529;20;3594008;-41
2024/03/21 09:20:01;;;;;;;;;40.67;36.67;;;;;12.64;51.46;99959.06;6280432;20;2857067;-40
2024/03/21 09:22:28;;;;;;;;;41.33;35.00;;;;;14.02;48.32;99958.56;6312296;20;3593016;-41
2024/03/21 09:24:56;;;;;;;;;43.50;36.00;;;;;12.87;50.53;99957.53;6276877;20;2843090;-41
2024/03/21 09:27:24;;;;;;;;;48.00;37.00;;;;;14.03;47.25;99962.13;6278238;20;2804432;-42
2024/03/21 09:29:52;;;;;;;;;48.67;41.00;;;;;14.55;46.08;99957.50;6278408;20;3616915;-41
2024/03/21 09:32:20;;;;;;;;;45.67;36.33;;;;;14.04;48.24;99959.31;6311360;20;3597208;-41
2024/03/21 09:34:51;;;;;;;;;48.00;39.00;;;;;13.79;48.29;99959.31;6278260;20;2853535;-41
2024/03/21 09:37:23;;;;;;;;;43.00;35.00;;;;;12.67;49.04;99956.16;6311620;20;3602376;-41
2024/03/21 09:39:51;;;;;;;;;40.67;34.33;;;;;14.32;47.12;99956.44;6277341;20;2855607;-40
2024/03/21 09:42:21;;;;;;;;;43.33;33.33;;;;;13.50;47.29;99947.88;6314129;20;3606564;-41
2024/03/21 09:44:53;;;;;;;;;44.00;34.33;;;;;12.98;48.39;99952.28;6275748;20;2847250;-41
2024/03/21 09:47:23;;;;;;;;;45.00;36.00;;;;;13.24;51.04;99942.41;6307878;20;2848226;-40
2024/03/21 09:49:51;;;;;;;;;39.67;35.67;;;;;14.19;48.09;99946.56;6311032;20;3594006;-43
2024/03/21 09:52:19;;;;;;;;;37.00;32.67;;;;;14.87;47.71;99947.84;6276542;20;2869047;-40
2024/03/21 09:54:47;;;;;;;;;43.00;34.33;;;;;14.73;46.52;99945.34;6309210;20;3614866;-41
2024/03/21 09:57:16;;;;;;;;;39.00;34.33;;;;;14.25;46.51;99943.41;6276915;20;2854508;-41
2024/03/21 09:59:43;;;;;;;;;40.67;34.67;;;;;14.35;46.53;99938.22;6309584;20;3614947;-42
2024/03/21 10:02:12;;;;;;;;;41.00;35.00;;;;;14.06;47.60;99940.31;6277248;20;2861064;-41
2024/03/21 10:04:48;;;;;;;;;40.33;35.67;;;;;13.32;48.49;99933.81;6308575;20;2861883;-41
2024/03/21 10:07:22;;;;;;;;;38.67;33.33;;;;;13.49;48.48;99935.38;6311248;20;3600762;-41
2024/03/21 10:09:58;;;;;;;;;39.00;33.33;;;;;14.57;47.25;99928.53;6281915;20;3583626;-42
2024/03/21 10:12:26;;;;;;;;;39.00;34.00;;;;;13.98;48.27;99926.47;6275954;20;2858708;-41
2024/03/21 10:14:55;;;;;;;;;31.67;30.00;;;;;14.54;46.06;99920.66;6312303;20;3589257;-41
2024/03/21 10:17:24;;;;;;;;;30.00;30.00;;;;;14.49;46.02;99921.81;6277907;20;3587742;-48
2024/03/21 10:19:53;;;;;;;;;43.67;33.33;;;;;15.12;45.80;99918.97;6277883;20;3612803;-45
2024/03/21 10:22:22;;;;;;;;;42.00;33.33;;;;;14.36;48.42;99915.59;6281164;20;3600248;-45
2024/03/21 10:24:56;;;;;;;;;34.00;31.33;;;;;14.40;48.71;99906.31;6277286;20;3585697;-47
2024/03/21 10:27:24;;;;;;;;;38.33;32.67;;;;;14.42;46.54;99903.47;6279175;20;3589841;-45
2024/03/21 10:29:54;;;;;;;;;32.33;31.33;;;;;14.40;47.23;99911.72;6278840;20;2835703;-44
2024/03/21 10:32:23;;;;;;;;;37.00;30.67;;;;;15.24;45.64;99906.31;6310213;20;3597327;-47
2024/03/21 10:34:54;;;;;;;;;29.67;29.33;;;;;15.60;43.97;99913.41;6276395;20;2853411;-45
2024/03/21 10:37:27;;;;;;;;;36.00;30.00;;;;;15.17;45.58;99910.50;6310841;20;3612841;-48
2024/03/21 10:39:55;;;;;;;;;25.00;21.50;;;;;15.75;43.91;99911.38;6275082;20;2846118;-44
2024/03/21 10:42:31;;;;;;;;;31.00;30.00;;;;;15.87;43.98;99909.53;6280283;20;3597127;-41
2024/03/21 10:45:04;;;;;;;;;33.67;29.67;;;;;15.71;45.59;99909.88;6275292;20;3612754;-40
2024/03/21 10:47:32;;;;;;;;;26.00;26.00;;;;;15.84;43.29;99902.50;6310699;20;3598184;-41
2024/03/21 10:50:00;;;;;;;;;31.67;29.00;;;;;15.75;42.96;99905.97;6280192;20;3611758;-41
2024/03/21 10:52:27;;;;;;;;;31.67;27.00;;;;;16.13;42.34;99912.84;6279261;20;3603458;-45
2024/03/21 10:54:58;;;;;;;;;33.75;29.75;;;;;15.36;44.19;99906.25;6276019;20;3617434;-42
2024/03/21 10:57:28;;;;;;;;;28.13;24.13;;;;;16.00;45.11;99905.72;6333370;20;3587745;-42
2024/03/21 11:00:10;;;;;;;;;25.00;22.33;;;;;16.29;42.21;99899.75;6276738;20;2844218;-44
2024/03/21 11:02:38;;;;;;;;;27.00;26.33;;;;;15.90;43.26;99899.31;6309707;20;3593017;-43
2024/03/21 11:05:15;;;;;;;;;24.33;19.67;;;;;15.74;43.20;99887.97;6275255;20;2854562;-41
2024/03/21 11:07:44;;;;;;;;;22.33;22.33;;;;;16.21;41.62;99888.69;6310686;20;3574202;-41
2024/03/21 11:10:23;;;;;;;;;26.00;22.00;;;;;15.21;41.20;99890.34;6275597;20;2846180;-41
2024/03/21 11:12:52;;;;;;;;;23.00;20.33;;;;;16.09;40.19;99885.16;6306308;20;2846625;-44
2024/03/21 11:15:19;;;;;;;;;21.33;21.00;;;;;16.38;40.54;99885.47;6304981;20;3588232;-45